Time;durP1;ratioP1;P1;durP2;ratioP2;P2;SDS_P1;SDS_P2;PMS_P1;PMS_P2;Temp;Humidity;BMP_temperature;BMP_pressure;BME280_temperature;BME280_humidity;BME280_pressure;Samples;Min_cycle;Max_cycle;Signal;HPM_P1;HPM_P2
2023/08/28 00:02:08;;;;;;;1999.90;999.90;;;;;;;14.02;100.00;101055.41;10442854;28;20057;-65
2023/08/28 00:07:11;;;;;;;1999.90;999.90;;;;;;;14.16;100.00;101052.69;10426127;28;20516;-66
2023/08/28 00:12:13;;;;;;;1999.90;999.90;;;;;;;14.19;100.00;101062.16;10459970;28;20494;-65
2023/08/28 00:17:17;;;;;;;1999.90;999.90;;;;;;;14.16;100.00;101071.13;10460442;28;20055;-66
2023/08/28 00:22:20;;;;;;;1999.90;999.90;;;;;;;14.02;100.00;101071.19;10441871;28;20564;-66
2023/08/28 00:27:22;;;;;;;1999.90;999.90;;;;;;;13.92;100.00;101069.19;10459399;28;20408;-66
2023/08/28 00:32:26;;;;;;;1999.90;999.90;;;;;;;13.86;100.00;101074.03;10459868;28;20059;-66
2023/08/28 00:37:28;;;;;;;1999.90;999.90;;;;;;;13.93;100.00;101076.13;10441941;28;20123;-66
2023/08/28 00:42:30;;;;;;;1999.90;999.90;;;;;;;13.98;100.00;101067.09;10458730;28;20473;-66
2023/08/28 00:47:34;;;;;;;1999.90;999.90;;;;;;;13.97;100.00;101060.13;10459807;28;20049;-66
2023/08/28 00:52:36;;;;;;;1999.90;999.90;;;;;;;14.14;100.00;101059.84;10441350;28;20052;-66
2023/08/28 00:57:39;;;;;;;1999.90;999.90;;;;;;;13.86;100.00;101071.41;10458744;28;20056;-66
2023/08/28 01:02:42;;;;;;;1999.90;999.90;;;;;;;13.84;100.00;101068.88;10457594;28;20127;-66
2023/08/28 01:08:09;;;;;;;1999.90;999.90;;;;;;;13.89;100.00;101050.16;10458313;28;20052;-66
2023/08/28 01:13:22;;;;;;;1999.90;999.90;;;;;;;13.73;100.00;101050.31;10439939;28;20045;-66
2023/08/28 01:18:25;;;;;;;1999.90;999.90;;;;;;;13.88;100.00;101048.44;10440494;28;20052;-66
2023/08/28 01:23:32;;;;;;;1999.90;999.90;;;;;;;13.89;100.00;101042.25;10457106;28;20056;-66
2023/08/28 01:28:34;;;;;;;1999.90;999.90;;;;;;;13.82;100.00;101046.22;10457677;28;20063;-66
2023/08/28 01:33:37;;;;;;;1999.90;999.90;;;;;;;13.89;100.00;101050.16;10439838;28;20052;-67
2023/08/28 01:38:47;;;;;;;1999.90;999.90;;;;;;;13.81;100.00;101045.38;10457348;28;20057;-66
2023/08/28 01:43:51;;;;;;;1999.90;999.90;;;;;;;13.69;100.00;101048.84;10438835;28;20405;-66
2023/08/28 01:48:53;;;;;;;1999.90;999.90;;;;;;;13.76;100.00;101047.47;10456451;28;20140;-66
2023/08/28 01:53:56;;;;;;;1999.90;999.90;;;;;;;13.53;100.00;101044.59;10439346;28;20056;-66
2023/08/28 01:58:59;;;;;;;1999.90;999.90;;;;;;;13.57;100.00;101037.34;10456995;28;20045;-66
2023/08/28 02:04:02;;;;;;;1999.90;999.90;;;;;;;13.62;100.00;101037.88;10455793;28;20111;-66
2023/08/28 02:09:04;;;;;;;1999.90;999.90;;;;;;;13.88;100.00;101038.75;10439172;28;20059;-66
2023/08/28 02:14:07;;;;;;;1999.90;999.90;;;;;;;13.90;100.00;101026.34;10463420;28;20585;-66
2023/08/28 02:19:09;;;;;;;1999.90;999.90;;;;;;;13.81;100.00;101028.75;10465072;28;20076;-66
2023/08/28 02:24:11;;;;;;;1999.90;999.90;;;;;;;13.88;100.00;101017.69;10464765;28;20045;-66
2023/08/28 02:29:14;;;;;;;1999.90;999.90;;;;;;;13.98;100.00;101015.28;10446925;28;20049;-66
2023/08/28 02:34:16;;;;;;;1999.90;999.90;;;;;;;13.88;100.00;101014.22;10463848;28;20041;-66
2023/08/28 02:39:18;;;;;;;1999.90;999.90;;;;;;;13.69;100.00;101027.78;10463641;28;20060;-66
2023/08/28 02:44:21;;;;;;;1999.90;999.90;;;;;;;13.85;100.00;101023.19;10429896;28;20045;-65
2023/08/28 02:49:23;;;;;;;1999.90;999.90;;;;;;;13.74;100.00;101028.34;10463883;28;20060;-66
2023/08/28 02:54:26;;;;;;;1999.90;999.90;;;;;;;13.83;100.00;101032.97;10464196;28;20124;-66
2023/08/28 02:59:28;;;;;;;1999.90;999.90;;;;;;;13.54;100.00;101042.81;10463351;28;20057;-67
2023/08/28 03:04:30;;;;;;;1999.90;999.90;;;;;;;13.71;100.00;101045.16;10463085;28;20061;-66
2023/08/28 03:09:33;;;;;;;1999.90;999.90;;;;;;;13.64;100.00;101057.03;10463136;28;20059;-65
2023/08/28 03:14:35;;;;;;;1999.90;999.90;;;;;;;13.69;100.00;101049.69;10469872;22;20049;-67
2023/08/28 03:19:37;;;;;;;1999.90;999.90;;;;;;;13.48;100.00;101058.97;10462807;28;20053;-66
2023/08/28 03:24:40;;;;;;;1999.90;999.90;;;;;;;13.43;100.00;101074.22;10462565;28;20052;-66
2023/08/28 03:29:42;;;;;;;1999.90;999.90;;;;;;;13.59;100.00;101072.28;10461765;28;20382;-66
2023/08/28 03:34:44;;;;;;;1999.90;999.90;;;;;;;13.48;100.00;101064.25;10462226;28;20059;-66
2023/08/28 03:39:47;;;;;;;1999.90;999.90;;;;;;;13.65;100.00;101065.75;10461313;28;20136;-66
2023/08/28 03:44:49;;;;;;;1999.90;999.90;;;;;;;13.35;100.00;101075.56;10461814;28;20053;-66
2023/08/28 03:49:51;;;;;;;1999.90;999.90;;;;;;;13.22;100.00;101079.06;10461553;28;20053;-66
2023/08/28 03:54:54;;;;;;;1999.90;999.90;;;;;;;13.15;100.00;101083.88;10443148;28;20485;-66
2023/08/28 03:59:56;;;;;;;1999.90;999.90;;;;;;;13.27;100.00;101083.06;10460456;28;20383;-66
2023/08/28 04:05:02;;;;;;;1999.90;999.90;;;;;;;13.42;100.00;101091.81;10461020;28;20045;-66
2023/08/28 04:10:09;;;;;;;1999.90;999.90;;;;;;;13.40;100.00;101112.09;10460848;28;20076;-66
2023/08/28 04:15:12;;;;;;;1999.90;999.90;;;;;;;13.47;100.00;101109.91;10459770;28;20064;-66
2023/08/28 04:20:15;;;;;;;1999.90;999.90;;;;;;;13.50;100.00;101114.97;10460548;28;20051;-66
2023/08/28 04:25:17;;;;;;;1999.90;999.90;;;;;;;13.80;100.00;101120.03;10442562;28;20137;-66
2023/08/28 04:30:20;;;;;;;1999.90;999.90;;;;;;;13.47;100.00;101118.66;10459329;28;20071;-66
2023/08/28 04:35:22;;;;;;;1999.90;999.90;;;;;;;13.49;100.00;101118.56;10440998;28;20131;-66
2023/08/28 04:40:25;;;;;;;1999.90;999.90;;;;;;;13.56;100.00;101118.03;10459555;28;20048;-66
2023/08/28 04:45:27;;;;;;;1999.90;999.90;;;;;;;13.44;100.00;101115.38;10441088;28;20512;-66
2023/08/28 04:50:30;;;;;;;1999.90;999.90;;;;;;;13.46;100.00;101118.75;10458550;28;20518;-66
2023/08/28 04:55:32;;;;;;;1999.90;999.90;;;;;;;13.36;100.00;101107.97;10441269;28;20049;-66
2023/08/28 05:00:35;;;;;;;1999.90;999.90;;;;;;;13.53;100.00;101096.34;10457972;28;20408;-66
2023/08/28 05:05:37;;;;;;;1999.90;999.90;;;;;;;13.56;100.00;101085.63;10457947;28;20417;-66
2023/08/28 05:10:40;;;;;;;1999.90;999.90;;;;;;;13.62;100.00;101089.66;10440833;28;20123;-66
2023/08/28 05:15:42;;;;;;;1999.90;999.90;;;;;;;13.52;100.00;101084.16;10457920;28;20088;-66
2023/08/28 05:20:44;;;;;;;1999.90;999.90;;;;;;;13.57;100.00;101080.28;10458035;28;20048;-66
2023/08/28 05:25:47;;;;;;;1999.90;999.90;;;;;;;13.83;100.00;101082.13;10457876;28;20053;-66
2023/08/28 05:30:49;;;;;;;1999.90;999.90;;;;;;;13.78;100.00;101087.69;10440051;28;20056;-66
2023/08/28 05:35:51;;;;;;;1999.90;999.90;;;;;;;13.78;100.00;101094.75;10439919;28;20056;-66
2023/08/28 05:40:54;;;;;;;1999.90;999.90;;;;;;;13.64;100.00;101101.75;10456682;28;20486;-66
2023/08/28 05:45:56;;;;;;;1999.90;999.90;;;;;;;14.09;100.00;101098.81;10438681;28;20128;-66
2023/08/28 05:50:58;;;;;;;1999.90;999.90;;;;;;;13.89;100.00;101102.78;10456446;28;20502;-66
2023/08/28 05:56:01;;;;;;;1999.90;999.90;;;;;;;13.96;100.00;101106.69;10456289;28;20402;-66
2023/08/28 06:01:03;;;;;;;1999.90;999.90;;;;;;;14.17;100.00;101108.81;10438650;28;20091;-66
2023/08/28 06:06:06;;;;;;;1999.90;999.90;;;;;;;14.34;100.00;101105.91;10456656;28;20053;-66
2023/08/28 06:11:08;;;;;;;1999.90;999.90;;;;;;;14.36;100.00;101111.91;10455984;28;20478;-66
2023/08/28 06:16:10;;;;;;;1999.90;999.90;;;;;;;14.40;100.00;101099.34;10456271;28;20061;-66
2023/08/28 06:21:13;;;;;;;1999.90;999.90;;;;;;;14.31;100.00;101095.56;10438830;28;20045;-66
2023/08/28 06:26:16;;;;;;;1999.90;999.90;;;;;;;14.30;100.00;101101.78;10438693;28;20049;-66
2023/08/28 06:31:18;;;;;;;1999.90;999.90;;;;;;;14.60;100.00;101106.75;10456267;28;20044;-66
2023/08/28 06:36:20;;;;;;;1999.90;999.90;;;;;;;14.75;100.00;101104.00;10455527;28;20049;-66
2023/08/28 06:41:23;;;;;;;1999.90;999.90;;;;;;;14.86;100.00;101117.25;10455311;28;20485;-66
2023/08/28 06:46:25;;;;;;;1999.90;999.90;;;;;;;14.91;100.00;101117.81;10455945;28;20052;-66
2023/08/28 06:51:28;;;;;;;1999.90;999.90;;;;;;;15.12;100.00;101112.78;10455856;28;20049;-66
2023/08/28 06:56:30;;;;;;;1999.90;999.90;;;;;;;14.90;100.00;101112.63;10439247;28;20059;-66
2023/08/28 07:01:33;;;;;;;1999.90;999.90;;;;;;;15.23;100.00;101123.41;10463407;28;20080;-66
2023/08/28 07:06:35;;;;;;;1999.90;999.90;;;;;;;15.72;100.00;101126.91;10463315;28;20049;-66
2023/08/28 07:11:38;;;;;;;1999.90;999.90;;;;;;;15.68;100.00;101117.50;10462455;28;20477;-66
2023/08/28 07:16:40;;;;;;;1999.90;999.90;;;;;;;16.09;100.00;101128.66;10444919;28;20053;-67
2023/08/28 07:21:42;;;;;;;1999.90;999.90;;;;;;;16.26;100.00;101125.56;10462051;28;20472;-66
2023/08/28 07:26:45;;;;;;;1999.90;999.90;;;;;;;16.68;100.00;101117.91;10461932;28;20084;-66
2023/08/28 07:31:47;;;;;;;1999.90;999.90;;;;;;;17.35;100.00;101112.69;10444712;28;20053;-67
2023/08/28 07:36:50;;;;;;;1999.90;999.90;;;;;;;18.04;99.81;101109.69;10444010;28;20132;-67
2023/08/28 07:41:54;;;;;;;1999.90;999.90;;;;;;;18.30;95.96;101115.41;10444176;28;20083;-67
2023/08/28 07:46:56;;;;;;;1999.90;999.90;;;;;;;19.18;90.77;101114.94;10443370;28;20160;-67
2023/08/28 07:51:59;;;;;;;1999.90;999.90;;;;;;;19.42;87.15;101107.44;10461494;28;20049;-67
2023/08/28 07:57:01;;;;;;;1999.90;999.90;;;;;;;19.99;86.77;101114.75;10461368;28;20044;-67
2023/08/28 08:02:04;;;;;;;1999.90;999.90;;;;;;;19.78;88.36;101120.22;10461081;28;20048;-67
2023/08/28 08:07:06;;;;;;;1999.90;999.90;;;;;;;20.18;85.04;101121.84;10460953;28;20049;-67
2023/08/28 08:12:09;;;;;;;1999.90;999.90;;;;;;;19.91;83.88;101117.28;10459302;28;20051;-67
2023/08/28 08:17:12;;;;;;;1999.90;999.90;;;;;;;18.33;92.09;101125.75;10459699;28;20053;-67
2023/08/28 08:22:14;;;;;;;1999.90;999.90;;;;;;;17.91;96.62;101115.16;10460330;28;20072;-67
2023/08/28 08:27:17;;;;;;;1999.90;999.90;;;;;;;18.00;98.97;101118.84;10459526;28;20049;-66
2023/08/28 08:32:19;;;;;;;1999.90;999.90;;;;;;;19.30;95.56;101120.00;10442345;28;20051;-67
2023/08/28 08:37:21;;;;;;;1999.90;999.90;;;;;;;20.20;85.23;101115.41;10459152;28;20486;-66
2023/08/28 08:42:24;;;;;;;1999.90;999.90;;;;;;;20.13;79.17;101109.00;10459467;28;20083;-67
2023/08/28 08:47:26;;;;;;;1999.90;999.90;;;;;;;21.69;80.06;101116.25;10441690;28;20049;-66
2023/08/28 08:52:29;;;;;;;1999.90;999.90;;;;;;;20.47;81.71;101127.09;10441604;28;20049;-67
2023/08/28 08:57:37;;;;;;;1999.90;999.90;;;;;;;19.60;85.66;101135.97;10441279;28;20076;-67
2023/08/28 09:02:39;;;;;;;1999.90;999.90;;;;;;;19.59;86.59;101129.81;10441298;28;20053;-67
2023/08/28 09:07:43;;;;;;;1999.90;999.90;;;;;;;19.40;84.24;101129.78;10441031;28;20056;-67
2023/08/28 09:12:46;;;;;;;1999.90;999.90;;;;;;;19.78;88.32;101129.03;10440714;28;20050;-67
2023/08/28 09:17:48;;;;;;;1999.90;999.90;;;;;;;19.81;83.10;101127.91;10457410;28;20059;-66
2023/08/28 09:22:53;;;;;;;1999.90;999.90;;;;;;;19.24;86.45;101119.72;10440274;28;20041;-66
2023/08/28 09:27:58;;;;;;;1999.90;999.90;;;;;;;19.18;84.28;101133.53;10439688;28;20515;-67
2023/08/28 09:33:04;;;;;;;1999.90;999.90;;;;;;;19.26;87.94;101121.25;10457033;28;20471;-67
2023/08/28 09:38:08;;;;;;;1999.90;999.90;;;;;;;18.82;87.49;101127.81;10440254;28;20114;-67
2023/08/28 09:43:15;;;;;;;1999.90;999.90;;;;;;;18.79;88.67;101133.38;10438928;28;20404;-66
2023/08/28 09:48:18;;;;;;;1999.90;999.90;;;;;;;19.21;87.92;101122.66;10439612;28;20049;-66
2023/08/28 09:53:30;;;;;;;1999.90;999.90;;;;;;;20.21;86.14;101116.25;10439360;28;20049;-67
2023/08/28 09:58:36;;;;;;;1999.90;999.90;;;;;;;23.52;76.82;101125.91;10438613;28;20074;-67
2023/08/28 10:03:39;;;;;;;1999.90;999.90;;;;;;;22.93;66.39;101117.03;10456689;28;20124;-67
2023/08/28 10:08:43;;;;;;;1999.90;999.90;;;;;;;23.78;64.58;101116.88;10456691;28;20052;-67
2023/08/28 10:13:45;;;;;;;1999.90;999.90;;;;;;;21.81;70.27;101116.84;10438248;28;20041;-67
2023/08/28 10:18:59;;;;;;;1999.90;999.90;;;;;;;21.75;71.38;101116.63;10422262;28;20056;-67
2023/08/28 10:24:02;;;;;;;1999.90;999.90;;;;;;;21.32;75.03;101111.03;10456297;28;20049;-67
2023/08/28 10:29:06;;;;;;;1999.90;999.90;;;;;;;22.87;65.99;101110.50;10438097;28;20486;-66
2023/08/28 10:34:09;;;;;;;1999.90;999.90;;;;;;;23.14;69.93;101109.44;10461755;28;20084;-66
2023/08/28 10:39:11;;;;;;;1999.90;999.90;;;;;;;25.14;62.86;101118.75;10446634;28;20128;-67
2023/08/28 10:44:14;;;;;;;1999.90;999.90;;;;;;;26.00;58.81;101109.81;10463450;28;20461;-67
2023/08/28 10:49:17;;;;;;;1999.90;999.90;;;;;;;25.28;57.01;101102.97;10445698;28;20063;-67
2023/08/28 10:54:19;;;;;;;1999.90;999.90;;;;;;;25.53;57.77;101101.78;10463814;28;20080;-67
2023/08/28 10:59:25;;;;;;;1999.90;999.90;;;;;;;25.30;57.84;101101.78;10463821;28;20053;-67
2023/08/28 11:04:36;;;;;;;1999.90;999.90;;;;;;;27.81;56.09;101081.41;10445067;28;20486;-67
2023/08/28 11:09:39;;;;;;;1999.90;999.90;;;;;;;25.37;57.88;101083.97;10464012;28;20076;-67
2023/08/28 11:14:57;;;;;;;1999.90;999.90;;;;;;;25.46;56.96;101083.91;10463044;28;20150;-67
2023/08/28 11:19:59;;;;;;;1999.90;999.90;;;;;;;26.76;52.81;101078.25;10462180;28;20067;-68
2023/08/28 11:25:07;;;;;;;1999.90;999.90;;;;;;;25.28;48.67;101068.13;10462569;28;20045;-68
2023/08/28 11:30:11;;;;;;;1999.90;999.90;;;;;;;25.23;54.10;101060.59;10461795;28;20048;-68
2023/08/28 11:35:16;;;;;;;1999.90;999.90;;;;;;;26.18;54.63;101067.38;10444540;28;20083;-67
2023/08/28 11:40:21;;;;;;;1999.90;999.90;;;;;;;25.78;54.63;101072.09;10461397;28;20114;-67
2023/08/28 11:45:24;;;;;;;1999.90;999.90;;;;;;;25.88;51.59;101063.78;10442069;28;20490;-67
2023/08/28 11:50:28;;;;;;;1999.90;999.90;;;;;;;25.25;56.66;101068.44;10461632;28;20044;-67
2023/08/28 11:55:33;;;;;;;1999.90;999.90;;;;;;;24.10;56.49;101075.13;10460744;28;20045;-68
2023/08/28 12:00:36;;;;;;;1999.90;999.90;;;;;;;26.11;51.63;101067.28;10461910;28;20049;-66
2023/08/28 12:05:38;;;;;;;1999.90;999.90;;;;;;;27.10;51.46;101075.97;10443307;28;20051;-67
2023/08/28 12:10:40;;;;;;;1999.90;999.90;;;;;;;26.05;49.81;101075.22;10460884;28;20052;-67
2023/08/28 12:15:43;;;;;;;1999.90;999.90;;;;;;;26.85;49.72;101071.78;10442981;28;20045;-67
2023/08/28 12:20:45;;;;;;;1999.90;999.90;;;;;;;27.36;45.37;101076.25;10459656;28;20084;-67
2023/08/28 12:25:48;;;;;;;1999.90;999.90;;;;;;;27.11;46.47;101069.56;10460098;28;20045;-67
2023/08/28 12:30:52;;;;;;;1999.90;999.90;;;;;;;26.30;47.18;101079.28;10460087;28;20155;-66
2023/08/28 12:35:55;;;;;;;1999.90;999.90;;;;;;;27.91;45.25;101073.84;10441537;28;20083;-66
2023/08/28 12:40:58;;;;;;;1999.90;999.90;;;;;;;25.22;49.24;101085.72;10459584;28;20055;-66
2023/08/28 12:46:01;;;;;;;1999.90;999.90;;;;;;;24.72;53.29;101082.47;10459407;28;20077;-67
2023/08/28 12:51:03;;;;;;;1999.90;999.90;;;;;;;24.13;56.11;101088.16;10441803;28;20076;-67
2023/08/28 12:56:06;;;;;;;1999.90;999.90;;;;;;;24.06;56.46;101081.81;10457908;28;20490;-67
2023/08/28 13:01:08;;;;;;;1999.90;999.90;;;;;;;25.21;55.20;101081.38;10458697;28;20128;-66
2023/08/28 13:06:11;;;;;;;1999.90;999.90;;;;;;;26.32;49.34;101069.19;10457983;28;20385;-67
2023/08/28 13:11:13;;;;;;;1999.90;999.90;;;;;;;26.26;51.70;101071.78;10457808;28;20136;-67
2023/08/28 13:16:15;;;;;;;1999.90;999.90;;;;;;;24.96;54.18;101065.44;10457585;28;20510;-67
2023/08/28 13:21:18;;;;;;;1999.90;999.90;;;;;;;23.90;57.10;101064.78;10439668;28;20106;-69
2023/08/28 13:26:20;;;;;;;1999.90;999.90;;;;;;;26.37;51.91;101049.03;10457869;28;20045;-69
2023/08/28 13:31:23;;;;;;;1999.90;999.90;;;;;;;26.04;51.45;101063.66;10456905;28;20486;-69
2023/08/28 13:36:25;;;;;;;1999.90;999.90;;;;;;;24.42;52.28;101062.66;10457559;28;20051;-69
2023/08/28 13:41:29;;;;;;;1999.90;999.90;;;;;;;23.76;55.84;101062.75;10456847;28;20048;-70
2023/08/28 13:46:31;;;;;;;1999.90;999.90;;;;;;;22.80;56.52;101053.44;10457242;28;20057;-69
2023/08/28 13:51:34;;;;;;;1999.90;999.90;;;;;;;23.44;57.59;101064.44;10439466;28;20045;-69
2023/08/28 13:56:37;;;;;;;1999.90;999.90;;;;;;;22.80;60.15;101064.13;10456991;28;20099;-69
2023/08/28 14:01:40;;;;;;;1999.90;999.90;;;;;;;23.40;56.39;101071.09;10456786;28;20056;-68
2023/08/28 14:06:43;;;;;;;1999.90;999.90;;;;;;;22.89;58.78;101067.63;10455954;28;20087;-69
2023/08/28 14:11:45;;;;;;;1999.90;999.90;;;;;;;23.38;58.94;101067.75;10456631;28;20051;-69
2023/08/28 14:16:48;;;;;;;1999.90;999.90;;;;;;;24.39;55.60;101069.19;10456580;28;20045;-69
2023/08/28 14:21:51;;;;;;;1999.90;999.90;;;;;;;24.13;56.81;101058.72;10455682;28;20128;-69
2023/08/28 14:26:53;;;;;;;1999.90;999.90;;;;;;;23.64;57.85;101072.97;10455771;28;20152;-69
2023/08/28 14:31:55;;;;;;;1999.90;999.90;;;;;;;22.70;58.75;101074.91;10456345;28;20124;-69
2023/08/28 14:36:58;;;;;;;1999.90;999.90;;;;;;;23.46;59.15;101072.28;10438641;28;20056;-69
2023/08/28 14:42:00;;;;;;;1999.90;999.90;;;;;;;22.81;59.60;101073.78;10437766;28;20537;-69
2023/08/28 14:47:03;;;;;;;1999.90;999.90;;;;;;;22.38;62.08;101062.28;10456190;28;20045;-69
2023/08/28 14:52:05;;;;;;;1999.90;999.90;;;;;;;22.21;62.21;101079.97;10455918;28;20041;-69
2023/08/28 14:57:08;;;;;;;1999.90;999.90;;;;;;;23.05;59.09;101074.84;10455782;28;20076;-69
2023/08/28 15:02:10;;;;;;;1999.90;999.90;;;;;;;23.20;60.83;101086.63;10455603;28;20045;-69
2023/08/28 15:07:12;;;;;;;1999.90;999.90;;;;;;;23.31;59.97;101088.13;10438158;28;20111;-69
2023/08/28 15:12:15;;;;;;;1999.90;999.90;;;;;;;23.10;61.17;101089.44;10437873;28;20049;-70
2023/08/28 15:17:17;;;;;;;1999.90;999.90;;;;;;;22.93;61.50;101091.19;10455597;28;20087;-69
2023/08/28 15:22:19;;;;;;;1999.90;999.90;;;;;;;22.64;64.98;101094.22;10445171;28;20041;-69
2023/08/28 15:27:22;;;;;;;1999.90;999.90;;;;;;;22.39;64.00;101094.13;10462711;28;20055;-70
2023/08/28 15:32:24;;;;;;;1999.90;999.90;;;;;;;22.56;62.10;101095.03;10478698;23;20062;-69
2023/08/28 15:37:27;;;;;;;1999.90;999.90;;;;;;;22.58;61.50;101102.88;10502543;28;20048;-69
2023/08/28 15:42:29;;;;;;;1999.90;999.90;;;;;;;22.59;62.96;101107.22;10502848;28;20465;-69
2023/08/28 15:47:32;;;;;;;1999.90;999.90;;;;;;;22.44;62.92;101109.63;10503328;28;20044;-69
2023/08/28 15:52:35;;;;;;;1999.90;999.90;;;;;;;21.55;63.09;101118.59;10502503;28;20052;-69
2023/08/28 15:57:37;;;;;;;1999.90;999.90;;;;;;;21.40;66.41;101112.94;10484754;28;20045;-69
2023/08/28 16:02:40;;;;;;;1999.90;999.90;;;;;;;21.05;67.81;101118.06;10502706;28;20127;-69
2023/08/28 16:07:42;;;;;;;1999.90;999.90;;;;;;;20.90;69.92;101123.03;10501900;28;20488;-69
2023/08/28 16:12:44;;;;;;;1999.90;999.90;;;;;;;20.42;71.57;101114.25;10501750;28;20418;-69
2023/08/28 16:17:47;;;;;;;1999.90;999.90;;;;;;;20.58;74.49;101124.25;10501499;28;20426;-69
2023/08/28 16:22:49;;;;;;;1999.90;999.90;;;;;;;19.91;77.76;101130.56;10501226;28;20048;-66
2023/08/28 16:27:52;;;;;;;1999.90;999.90;;;;;;;19.82;81.14;101129.56;10501730;28;20044;-68
2023/08/28 16:32:54;;;;;;;1999.90;999.90;;;;;;;19.99;83.95;101133.38;10499919;28;20071;-68
2023/08/28 16:37:57;;;;;;;1999.90;999.90;;;;;;;19.93;86.05;101129.44;10500625;28;20049;-68
2023/08/28 16:43:00;;;;;;;1999.90;999.90;;;;;;;19.67;87.88;101124.66;10501034;28;20051;-68
2023/08/28 16:48:02;;;;;;;1999.90;999.90;;;;;;;19.86;87.44;101126.50;10500885;28;20056;-68
2023/08/28 16:53:04;;;;;;;1999.90;999.90;;;;;;;19.53;90.84;101132.19;10500610;28;20048;-68
2023/08/28 16:58:08;;;;;;;1999.90;999.90;;;;;;;19.59;92.84;101129.81;10499641;28;20110;-68
2023/08/28 17:03:10;;;;;;;1999.90;999.90;;;;;;;19.76;90.80;101122.19;10498333;28;20051;-68
2023/08/28 17:08:13;;;;;;;1999.90;999.90;;;;;;;19.72;89.43;101120.72;10499008;28;20050;-68
2023/08/28 17:13:15;;;;;;;1999.90;999.90;;;;;;;19.88;90.74;101125.53;10499758;28;20055;-68
2023/08/28 17:18:18;;;;;;;1999.90;999.90;;;;;;;19.54;93.47;101124.09;10499604;28;20055;-68
2023/08/28 17:23:20;;;;;;;1999.90;999.90;;;;;;;19.77;92.48;101129.16;10497592;28;20538;-68
2023/08/28 17:28:23;;;;;;;1999.90;999.90;;;;;;;19.36;97.95;101133.72;10498801;28;20564;-69
2023/08/28 17:33:25;;;;;;;1999.90;999.90;;;;;;;19.19;97.93;101140.53;10498349;28;20408;-68
2023/08/28 17:38:28;;;;;;;1999.90;999.90;;;;;;;18.85;100.00;101140.84;10499022;28;20072;-68
2023/08/28 17:43:31;;;;;;;1999.90;999.90;;;;;;;18.88;100.00;101137.94;10497612;28;20044;-68
2023/08/28 17:48:33;;;;;;;1999.90;999.90;;;;;;;18.72;100.00;101135.72;10498081;28;20045;-68
2023/08/28 17:53:36;;;;;;;1999.90;999.90;;;;;;;18.71;100.00;101139.34;10498681;28;20407;-68
2023/08/28 17:58:38;;;;;;;1999.90;999.90;;;;;;;18.69;100.00;101144.78;10498500;28;20052;-68
2023/08/28 18:03:40;;;;;;;1999.90;999.90;;;;;;;18.41;100.00;101151.63;10497690;28;20515;-67
2023/08/28 18:08:43;;;;;;;1999.90;999.90;;;;;;;18.64;99.39;101143.50;10498376;28;20227;-67
2023/08/28 18:13:45;;;;;;;1999.90;999.90;;;;;;;18.44;100.00;101147.84;10497592;28;20058;-67
2023/08/28 18:18:48;;;;;;;1999.90;999.90;;;;;;;18.40;100.00;101157.88;10497428;28;20052;-68
2023/08/28 18:23:51;;;;;;;1999.90;999.90;;;;;;;18.30;100.00;101164.94;10496224;28;20083;-67
2023/08/28 18:28:55;;;;;;;1999.90;999.90;;;;;;;17.90;100.00;101173.56;10496185;28;20072;-67
2023/08/28 18:33:58;;;;;;;1999.90;999.90;;;;;;;17.90;100.00;101174.38;10497011;28;20083;-67
2023/08/28 18:39:00;;;;;;;1999.90;999.90;;;;;;;17.96;100.00;101181.00;10497734;28;20048;-67
2023/08/28 18:44:03;;;;;;;1999.90;999.90;;;;;;;17.78;100.00;101175.38;10496865;28;20478;-67
2023/08/28 18:49:06;;;;;;;1999.90;999.90;;;;;;;17.55;100.00;101191.34;10497516;28;20086;-67
2023/08/28 18:54:08;;;;;;;1999.90;999.90;;;;;;;17.85;100.00;101202.19;10501113;28;20052;-67
2023/08/28 18:59:10;;;;;;;1999.90;999.90;;;;;;;17.71;100.00;101214.75;10503971;28;20131;-67
2023/08/28 19:04:13;;;;;;;1999.90;999.90;;;;;;;17.53;100.00;101216.25;10503755;28;20051;-67
2023/08/28 19:09:15;;;;;;;1999.90;999.90;;;;;;;17.50;100.00;101217.34;10504213;28;20474;-67
2023/08/28 19:14:18;;;;;;;1999.90;999.90;;;;;;;17.69;100.00;101221.16;10504627;28;20068;-67
2023/08/28 19:19:20;;;;;;;1999.90;999.90;;;;;;;17.42;100.00;101233.00;10503836;28;20422;-67
2023/08/28 19:24:22;;;;;;;1999.90;999.90;;;;;;;17.46;100.00;101232.59;10504173;28;20045;-67
2023/08/28 19:29:25;;;;;;;1999.90;999.90;;;;;;;17.31;100.00;101235.63;10502350;28;20487;-67
2023/08/28 19:34:28;;;;;;;1999.90;999.90;;;;;;;17.16;100.00;101237.69;10501834;28;20045;-67
2023/08/28 19:39:30;;;;;;;1999.90;999.90;;;;;;;17.04;100.00;101247.41;10503721;28;20072;-67
2023/08/28 19:44:32;;;;;;;1999.90;999.90;;;;;;;16.87;100.00;101244.25;10503506;28;20044;-67
2023/08/28 19:49:35;;;;;;;1999.90;999.90;;;;;;;16.75;100.00;101253.13;10502642;28;20483;-67
2023/08/28 19:54:37;;;;;;;1999.90;999.90;;;;;;;16.59;100.00;101255.22;10503083;28;20048;-67
2023/08/28 19:59:40;;;;;;;1999.90;999.90;;;;;;;16.46;100.00;101261.44;10501144;28;20446;-67
2023/08/28 20:04:43;;;;;;;1999.90;999.90;;;;;;;16.38;100.00;101261.19;10500324;28;20048;-67
2023/08/28 20:09:45;;;;;;;1999.90;999.90;;;;;;;16.37;100.00;101259.47;10501276;28;20060;-67
2023/08/28 20:14:48;;;;;;;1999.90;999.90;;;;;;;16.23;100.00;101262.31;10501710;28;20480;-67
2023/08/28 20:19:50;;;;;;;1999.90;999.90;;;;;;;16.18;100.00;101269.75;10501523;28;20051;-67
2023/08/28 20:24:53;;;;;;;1999.90;999.90;;;;;;;16.16;100.00;101268.03;10500658;28;20045;-66
2023/08/28 20:29:55;;;;;;;1999.90;999.90;;;;;;;16.01;100.00;101250.69;10501395;28;20057;-66
2023/08/28 20:34:58;;;;;;;1999.90;999.90;;;;;;;15.78;100.00;101253.22;10500895;28;20048;-66
2023/08/28 20:40:00;;;;;;;1999.90;999.90;;;;;;;15.79;100.00;101256.69;10501255;28;20059;-66
2023/08/28 20:45:03;;;;;;;1999.90;999.90;;;;;;;15.61;100.00;101249.09;10500523;28;20087;-66
2023/08/28 20:50:08;;;;;;;1999.90;999.90;;;;;;;15.55;100.00;101243.41;10500250;28;20052;-66
2023/08/28 20:55:10;;;;;;;1999.90;999.90;;;;;;;15.48;100.00;101245.63;10500019;28;20044;-66
2023/08/28 21:00:13;;;;;;;1999.90;999.90;;;;;;;15.41;100.00;101242.59;10500372;28;20055;-66
2023/08/28 21:05:15;;;;;;;1999.90;999.90;;;;;;;15.20;100.00;101244.13;10500123;28;20076;-66
2023/08/28 21:10:18;;;;;;;1999.90;999.90;;;;;;;15.22;100.00;101247.50;10500044;28;20053;-66
2023/08/28 21:15:23;;;;;;;1999.90;999.90;;;;;;;15.21;100.00;101244.03;10499528;28;20079;-66
2023/08/28 21:20:26;;;;;;;1999.90;999.90;;;;;;;15.07;100.00;101241.47;10499599;28;20063;-66
2023/08/28 21:25:28;;;;;;;1999.90;999.90;;;;;;;15.11;100.00;101229.75;10498704;28;20504;-66
2023/08/28 21:30:31;;;;;;;1999.90;999.90;;;;;;;15.04;100.00;101242.53;10498958;28;20052;-65
2023/08/28 21:35:33;;;;;;;1999.90;999.90;;;;;;;15.02;100.00;101249.69;10498595;28;20482;-66
2023/08/28 21:40:35;;;;;;;1999.90;999.90;;;;;;;14.94;100.00;101243.28;10498372;28;20056;-66
2023/08/28 21:45:38;;;;;;;1999.90;999.90;;;;;;;14.74;100.00;101252.53;10497616;28;20072;-66